Time;durP1;ratioP1;P1;durP2;ratioP2;P2;SDS_P1;SDS_P2;PMS_P1;PMS_P2;Temp;Humidity;BMP_temperature;BMP_pressure;BME280_temperature;BME280_humidity;BME280_pressure;Samples;Min_cycle;Max_cycle;Signal;HPM_P1;HPM_P2
2022/03/10 00:02:09;;;;;;;15.82;9.43;;;;;;;;;;6280226;22;20544;-84
2022/03/10 00:04:38;;;;;;;15.13;8.88;;;;;;;;;;6280526;22;20077;-83
2022/03/10 00:07:05;;;;;;;14.77;9.70;;;;;;;;;;6281064;22;20038;-82
2022/03/10 00:09:32;;;;;;;16.17;10.07;;;;;;;;;;6281137;22;20031;-84
2022/03/10 00:11:58;;;;;;;15.77;10.13;;;;;;;;;;6279121;22;20443;-83
2022/03/10 00:14:24;;;;;;;13.98;9.63;;;;;;;;;;6280607;22;20348;-84
2022/03/10 00:16:50;;;;;;;15.18;9.55;;;;;;;;;;6279678;22;20002;-84
2022/03/10 00:19:16;;;;;;;15.70;9.70;;;;;;;;;;6278933;22;20008;-84
2022/03/10 00:21:46;;;;;;;15.60;10.15;;;;;;;;;;6279231;22;20340;-85
2022/03/10 00:24:15;;;;;;;15.23;9.90;;;;;;;;;;6279594;22;20431;-84
2022/03/10 00:26:44;;;;;;;16.55;9.90;;;;;;;;;;6281094;22;20480;-84
2022/03/10 00:29:10;;;;;;;15.85;9.55;;;;;;;;;;6278557;22;20008;-84
2022/03/10 00:31:36;;;;;;;15.77;9.73;;;;;;;;;;6278756;22;20390;-83
2022/03/10 00:34:02;;;;;;;14.75;9.93;;;;;;;;;;6280433;22;20003;-84
2022/03/10 00:36:28;;;;;;;17.00;9.55;;;;;;;;;;6278860;22;20000;-84
2022/03/10 00:38:55;;;;;;;14.70;9.07;;;;;;;;;;6278000;22;20003;-84
2022/03/10 00:41:21;;;;;;;15.45;9.75;;;;;;;;;;6280307;22;20431;-84
2022/03/10 00:43:47;;;;;;;19.00;10.32;;;;;;;;;;6278550;22;20004;-84
2022/03/10 00:46:14;;;;;;;17.92;10.27;;;;;;;;;;6277999;22;20018;-84
2022/03/10 00:48:40;;;;;;;15.43;9.73;;;;;;;;;;6277989;22;20011;-86
2022/03/10 00:51:06;;;;;;;15.07;9.20;;;;;;;;;;6280740;22;19999;-84
2022/03/10 00:53:32;;;;;;;14.93;9.63;;;;;;;;;;6277591;22;20076;-84
2022/03/10 00:55:58;;;;;;;17.10;10.88;;;;;;;;;;6277828;22;20002;-83
2022/03/10 00:58:24;;;;;;;14.63;8.65;;;;;;;;;;6279245;22;19999;-84
2022/03/10 01:00:54;;;;;;;19.08;10.25;;;;;;;;;;6277495;22;20446;-84
2022/03/10 01:03:20;;;;;;;15.95;9.45;;;;;;;;;;6278528;22;20018;-84
2022/03/10 01:05:46;;;;;;;15.07;9.02;;;;;;;;;;6277028;22;20008;-83
2022/03/10 01:08:12;;;;;;;17.33;10.13;;;;;;;;;;6278228;22;20000;-84
2022/03/10 01:10:38;;;;;;;17.67;11.13;;;;;;;;;;6278075;22;20020;-83
2022/03/10 01:13:11;;;;;;;17.20;10.13;;;;;;;;;;6276685;22;20000;-81
2022/03/10 01:15:37;;;;;;;16.92;10.25;;;;;;;;;;6276426;22;20006;-84
2022/03/10 01:18:03;;;;;;;18.42;10.43;;;;;;;;;;6276322;22;20031;-84
2022/03/10 01:20:29;;;;;;;15.45;10.10;;;;;;;;;;6277012;22;20054;-82
2022/03/10 01:22:55;;;;;;;16.95;10.32;;;;;;;;;;6277732;22;19996;-83
2022/03/10 01:25:21;;;;;;;15.98;10.40;;;;;;;;;;6275494;22;20007;-83
2022/03/10 01:27:48;;;;;;;17.73;11.00;;;;;;;;;;6277134;22;20439;-84
2022/03/10 01:30:14;;;;;;;14.68;10.15;;;;;;;;;;6276778;22;20008;-83
2022/03/10 01:32:41;;;;;;;18.05;11.07;;;;;;;;;;6277709;22;19999;-83
2022/03/10 01:35:07;;;;;;;19.75;11.25;;;;;;;;;;6275938;22;19999;-84
2022/03/10 01:37:36;;;;;;;16.17;10.35;;;;;;;;;;6277497;22;20363;-82
2022/03/10 01:40:03;;;;;;;20.42;11.40;;;;;;;;;;6281540;22;20512;-84
2022/03/10 01:42:29;;;;;;;18.13;10.77;;;;;;;;;;6280470;22;20031;-83
2022/03/10 01:44:56;;;;;;;18.10;10.90;;;;;;;;;;6276738;22;20061;-83
2022/03/10 01:47:22;;;;;;;18.65;11.85;;;;;;;;;;6276981;22;20062;-82
2022/03/10 01:49:48;;;;;;;19.42;11.27;;;;;;;;;;6279420;22;20008;-83
2022/03/10 01:52:15;;;;;;;16.80;10.13;;;;;;;;;;6277722;22;20004;-82
2022/03/10 01:54:42;;;;;;;16.67;10.20;;;;;;;;;;6279075;22;20003;-83
2022/03/10 01:57:08;;;;;;;18.35;11.10;;;;;;;;;;6277161;22;20027;-83
2022/03/10 01:59:34;;;;;;;16.83;10.68;;;;;;;;;;6276610;22;20065;-83
2022/03/10 02:02:00;;;;;;;19.08;11.88;;;;;;;;;;6277386;22;20015;-83
2022/03/10 02:04:26;;;;;;;19.00;11.60;;;;;;;;;;6277586;22;20008;-84
2022/03/10 02:06:53;;;;;;;16.85;10.93;;;;;;;;;;6278022;22;20019;-83
2022/03/10 02:12:05;;;;;;;17.35;10.27;;;;;;;;;;6278909;22;20053;-83
2022/03/10 02:17:22;;;;;;;16.45;10.45;;;;;;;;;;6279024;22;20296;-84
2022/03/10 02:19:51;;;;;;;16.07;10.30;;;;;;;;;;6278879;22;20010;-84
2022/03/10 02:22:18;;;;;;;18.17;10.38;;;;;;;;;;6276603;22;20090;-84
2022/03/10 02:24:44;;;;;;;17.30;10.65;;;;;;;;;;6278708;22;20402;-83
2022/03/10 02:27:21;;;;;;;19.90;10.55;;;;;;;;;;6277566;22;20389;-83
2022/03/10 02:29:48;;;;;;;17.27;10.95;;;;;;;;;;6276599;22;20090;-83
2022/03/10 02:32:14;;;;;;;16.83;10.15;;;;;;;;;;6279017;22;19995;-83
2022/03/10 02:34:41;;;;;;;19.50;10.90;;;;;;;;;;6276219;22;20053;-83
2022/03/10 02:37:08;;;;;;;17.80;10.95;;;;;;;;;;6276284;22;20015;-83
2022/03/10 02:39:34;;;;;;;17.33;11.23;;;;;;;;;;6278739;22;20004;-83
2022/03/10 02:42:01;;;;;;;16.98;10.65;;;;;;;;;;6277959;22;20003;-82
2022/03/10 02:44:27;;;;;;;19.67;11.32;;;;;;;;;;6280295;22;20011;-81
2022/03/10 02:46:53;;;;;;;17.08;11.82;;;;;;;;;;6280399;22;20003;-82
2022/03/10 02:49:19;;;;;;;17.30;10.82;;;;;;;;;;6279045;22;20008;-83
2022/03/10 02:51:45;;;;;;;19.17;11.05;;;;;;;;;;6280147;22;20075;-82
2022/03/10 02:54:11;;;;;;;18.42;9.98;;;;;;;;;;6281034;22;20022;-82
2022/03/10 02:56:37;;;;;;;17.85;11.23;;;;;;;;;;6279803;22;19999;-83
2022/03/10 02:59:03;;;;;;;15.88;9.82;;;;;;;;;;6279206;22;20016;-83
2022/03/10 03:01:29;;;;;;;15.43;10.00;;;;;;;;;;6279959;22;20043;-83
2022/03/10 03:03:56;;;;;;;16.33;9.98;;;;;;;;;;6277347;22;20109;-82
2022/03/10 03:06:22;;;;;;;16.52;10.95;;;;;;;;;;6278424;22;19999;-82
2022/03/10 03:08:48;;;;;;;17.40;10.23;;;;;;;;;;6255233;22;20102;-82
2022/03/10 03:11:14;;;;;;;16.33;10.48;;;;;;;;;;6254610;22;20000;-84
2022/03/10 03:13:40;;;;;;;18.13;10.50;;;;;;;;;;6253695;22;20000;-82
2022/03/10 03:16:06;;;;;;;16.45;9.80;;;;;;;;;;6279034;22;20000;-82
2022/03/10 03:18:33;;;;;;;16.95;10.50;;;;;;;;;;6277777;22;20082;-82
2022/03/10 03:20:59;;;;;;;17.88;10.25;;;;;;;;;;6278014;22;20004;-82
2022/03/10 03:23:25;;;;;;;17.45;12.02;;;;;;;;;;6279822;22;20420;-83
2022/03/10 03:25:51;;;;;;;19.17;11.60;;;;;;;;;;6253244;22;20086;-83
2022/03/10 03:28:18;;;;;;;17.92;10.50;;;;;;;;;;6279790;22;20427;-81
2022/03/10 03:30:44;;;;;;;16.92;10.75;;;;;;;;;;6251196;22;20000;-82
2022/03/10 03:33:10;;;;;;;17.88;10.07;;;;;;;;;;6253235;22;20007;-83
2022/03/10 03:35:36;;;;;;;15.73;9.73;;;;;;;;;;6254594;22;20004;-82
2022/03/10 03:38:02;;;;;;;16.08;10.27;;;;;;;;;;6281319;22;20082;-81
2022/03/10 03:40:28;;;;;;;18.02;10.75;;;;;;;;;;6253033;22;20003;-81
2022/03/10 03:42:54;;;;;;;15.48;9.82;;;;;;;;;;6281108;22;20450;-81
2022/03/10 03:45:20;;;;;;;18.90;10.60;;;;;;;;;;6254109;22;20004;-82
2022/03/10 03:47:46;;;;;;;16.60;10.05;;;;;;;;;;6281617;22;19999;-81
2022/03/10 03:50:12;;;;;;;16.67;10.35;;;;;;;;;;6279030;22;20088;-81
2022/03/10 03:52:38;;;;;;;15.45;9.75;;;;;;;;;;6251987;22;20053;-81
2022/03/10 03:55:04;;;;;;;18.45;10.45;;;;;;;;;;6279450;22;20066;-82
2022/03/10 03:57:30;;;;;;;16.05;10.77;;;;;;;;;;6279875;22;20000;-83
2022/03/10 03:59:56;;;;;;;17.23;10.40;;;;;;;;;;6251967;22;20094;-82
2022/03/10 04:02:22;;;;;;;15.95;9.60;;;;;;;;;;6279811;22;20006;-82
2022/03/10 04:04:48;;;;;;;17.00;10.07;;;;;;;;;;6253988;22;20050;-81
2022/03/10 04:07:15;;;;;;;16.65;9.80;;;;;;;;;;6280655;22;20125;-82
2022/03/10 04:09:41;;;;;;;15.63;9.93;;;;;;;;;;6251574;22;20097;-83
2022/03/10 04:12:08;;;;;;;18.05;10.23;;;;;;;;;;6280076;22;20003;-81
2022/03/10 04:14:34;;;;;;;16.20;10.40;;;;;;;;;;6280377;22;20000;-82
2022/03/10 04:17:00;;;;;;;17.77;9.93;;;;;;;;;;6252982;22;20003;-81
2022/03/10 04:19:26;;;;;;;18.70;11.13;;;;;;;;;;6279158;22;20007;-82
2022/03/10 04:21:52;;;;;;;15.63;9.80;;;;;;;;;;6280218;22;20053;-81
2022/03/10 04:24:18;;;;;;;16.60;9.48;;;;;;;;;;6253162;22;20003;-81
2022/03/10 04:26:44;;;;;;;17.10;9.80;;;;;;;;;;6279702;22;20091;-83
2022/03/10 04:29:13;;;;;;;16.95;9.70;;;;;;;;;;6252871;22;20008;-82
2022/03/10 04:31:40;;;;;;;17.63;9.90;;;;;;;;;;6279934;22;20536;-83
2022/03/10 04:34:06;;;;;;;16.73;10.50;;;;;;;;;;6253309;22;20006;-82
2022/03/10 04:36:32;;;;;;;17.00;9.70;;;;;;;;;;6280738;22;20011;-82
2022/03/10 04:38:58;;;;;;;16.08;10.50;;;;;;;;;;6252935;22;20419;-81
2022/03/10 04:41:24;;;;;;;18.45;11.00;;;;;;;;;;6281423;22;20002;-81
2022/03/10 04:43:50;;;;;;;16.67;9.68;;;;;;;;;;6279253;22;20080;-82
2022/03/10 04:46:16;;;;;;;13.55;9.68;;;;;;;;;;6280157;22;20004;-82
2022/03/10 04:48:43;;;;;;;17.42;10.07;;;;;;;;;;6252642;22;20387;-82
2022/03/10 04:51:09;;;;;;;15.05;10.07;;;;;;;;;;6251778;22;20004;-81
2022/03/10 04:53:35;;;;;;;18.42;10.70;;;;;;;;;;6252354;22;19996;-81
2022/03/10 04:56:01;;;;;;;15.77;9.82;;;;;;;;;;6278987;22;20019;-83
2022/03/10 04:58:27;;;;;;;17.02;10.50;;;;;;;;;;6279102;22;20000;-83
2022/03/10 05:00:53;;;;;;;17.77;9.70;;;;;;;;;;6277343;22;20023;-82
2022/03/10 05:03:19;;;;;;;17.35;10.02;;;;;;;;;;6278117;22;20000;-82
2022/03/10 05:05:47;;;;;;;15.57;10.45;;;;;;;;;;6251365;22;20007;-82
2022/03/10 05:08:13;;;;;;;16.88;11.65;;;;;;;;;;6277745;22;20007;-82
2022/03/10 05:10:39;;;;;;;16.73;10.77;;;;;;;;;;6252406;22;19999;-82
2022/03/10 05:13:05;;;;;;;18.42;10.98;;;;;;;;;;6281231;22;20190;-81
2022/03/10 05:15:32;;;;;;;17.23;10.35;;;;;;;;;;6255361;22;20000;-82
2022/03/10 05:18:01;;;;;;;16.67;10.50;;;;;;;;;;6281255;22;20032;-81
2022/03/10 05:20:28;;;;;;;17.55;10.27;;;;;;;;;;6253642;22;20008;-82
2022/03/10 05:22:55;;;;;;;16.45;9.85;;;;;;;;;;6254792;22;20284;-81
2022/03/10 05:25:21;;;;;;;18.02;10.68;;;;;;;;;;6280446;22;20006;-82
2022/03/10 05:27:48;;;;;;;22.23;10.65;;;;;;;;;;6252626;22;20069;-82
2022/03/10 05:30:14;;;;;;;16.00;10.65;;;;;;;;;;6278386;22;20008;-81
2022/03/10 05:32:40;;;;;;;14.98;10.50;;;;;;;;;;6279761;22;20374;-81
2022/03/10 05:35:07;;;;;;;17.85;11.20;;;;;;;;;;6251112;22;20004;-82
2022/03/10 05:37:36;;;;;;;22.83;10.55;;;;;;;;;;6279481;22;19996;-80
2022/03/10 05:40:04;;;;;;;18.85;10.73;;;;;;;;;;6279012;22;20331;-81
2022/03/10 05:42:30;;;;;;;17.42;10.82;;;;;;;;;;6278071;22;20004;-83
2022/03/10 05:44:56;;;;;;;15.38;10.40;;;;;;;;;;6278697;22;20002;-83
2022/03/10 05:47:23;;;;;;;20.05;11.35;;;;;;;;;;6279544;22;20012;-83
2022/03/10 05:49:49;;;;;;;20.10;10.82;;;;;;;;;;6279960;22;20347;-82
2022/03/10 05:52:16;;;;;;;16.17;10.23;;;;;;;;;;6251906;22;20014;-81
2022/03/10 05:54:42;;;;;;;17.98;10.35;;;;;;;;;;6252548;22;20380;-81
2022/03/10 05:57:08;;;;;;;18.23;10.18;;;;;;;;;;6250423;22;20007;-82
2022/03/10 05:59:35;;;;;;;19.70;10.00;;;;;;;;;;6277380;22;20055;-83
2022/03/10 06:02:01;;;;;;;17.25;11.25;;;;;;;;;;6250372;22;20083;-81
2022/03/10 06:04:27;;;;;;;18.73;11.18;;;;;;;;;;6276761;22;20003;-82
2022/03/10 06:06:52;;;;;;;19.02;10.57;;;;;;;;;;6277207;22;20074;-84
2022/03/10 06:09:18;;;;;;;18.88;11.30;;;;;;;;;;6249713;22;20094;-82
2022/03/10 06:11:45;;;;;;;17.15;10.02;;;;;;;;;;6251072;22;20423;-84
2022/03/10 06:14:11;;;;;;;18.50;10.88;;;;;;;;;;6250517;22;20000;-82
2022/03/10 06:16:37;;;;;;;18.52;11.13;;;;;;;;;;6293316;22;20003;-83
2022/03/10 06:19:03;;;;;;;18.52;10.82;;;;;;;;;;6300410;22;20004;-82
2022/03/10 06:21:29;;;;;;;18.92;10.93;;;;;;;;;;6298429;22;20035;-83
2022/03/10 06:23:56;;;;;;;26.00;11.77;;;;;;;;;;6299939;22;20051;-85
2022/03/10 06:26:22;;;;;;;19.20;11.25;;;;;;;;;;6298332;22;20082;-82
2022/03/10 06:28:48;;;;;;;18.85;10.63;;;;;;;;;;6289809;22;20004;-82
2022/03/10 06:31:14;;;;;;;20.60;11.65;;;;;;;;;;6251775;22;20011;-83
2022/03/10 06:33:40;;;;;;;18.45;11.07;;;;;;;;;;6278310;22;20000;-83
2022/03/10 06:36:06;;;;;;;21.88;12.80;;;;;;;;;;6251707;22;20006;-83
2022/03/10 06:38:32;;;;;;;26.88;13.07;;;;;;;;;;6251582;22;19999;-81
2022/03/10 06:40:59;;;;;;;22.38;11.85;;;;;;;;;;6278569;22;20004;-82
2022/03/10 06:43:25;;;;;;;20.65;10.88;;;;;;;;;;6250962;22;20003;-83
2022/03/10 06:45:51;;;;;;;21.17;11.75;;;;;;;;;;6251474;22;20022;-82
2022/03/10 06:48:17;;;;;;;20.92;11.50;;;;;;;;;;6250327;22;20078;-83
2022/03/10 06:50:43;;;;;;;19.85;12.10;;;;;;;;;;6278149;22;20343;-82
2022/03/10 06:53:09;;;;;;;22.60;11.93;;;;;;;;;;6250073;22;20091;-84
2022/03/10 06:55:35;;;;;;;23.88;12.05;;;;;;;;;;6262604;22;20023;-83
2022/03/10 06:58:01;;;;;;;21.48;11.23;;;;;;;;;;6298783;22;20450;-84
2022/03/10 07:00:27;;;;;;;21.65;12.52;;;;;;;;;;6299151;22;20128;-83
2022/03/10 07:02:53;;;;;;;20.45;12.35;;;;;;;;;;6273540;22;20006;-84
2022/03/10 07:05:19;;;;;;;20.80;13.20;;;;;;;;;;6290642;22;20035;-83
2022/03/10 07:07:45;;;;;;;20.48;12.68;;;;;;;;;;6278342;22;20031;-82
2022/03/10 07:10:12;;;;;;;20.38;11.95;;;;;;;;;;6251862;22;20003;-84
2022/03/10 07:12:39;;;;;;;16.13;10.82;;;;;;;;;;6251337;22;19999;-84
2022/03/10 07:15:06;;;;;;;17.52;11.55;;;;;;;;;;6279058;22;19991;-82
2022/03/10 07:17:32;;;;;;;18.40;12.57;;;;;;;;;;6280319;22;19996;-80
2022/03/10 07:19:58;;;;;;;16.05;11.15;;;;;;;;;;6279087;22;20070;-84
2022/03/10 07:22:24;;;;;;;18.95;11.65;;;;;;;;;;6278337;22;20034;-83
2022/03/10 07:24:50;;;;;;;17.27;11.80;;;;;;;;;;6277073;22;20000;-83
2022/03/10 07:27:17;;;;;;;18.92;12.15;;;;;;;;;;6277547;22;19999;-82
2022/03/10 07:29:43;;;;;;;22.65;11.85;;;;;;;;;;6249908;22;20000;-81
2022/03/10 07:32:09;;;;;;;18.17;11.90;;;;;;;;;;6249232;22;20019;-82
2022/03/10 07:34:35;;;;;;;22.38;12.73;;;;;;;;;;6249882;22;20004;-80
2022/03/10 07:37:01;;;;;;;19.63;13.18;;;;;;;;;;6250775;22;20000;-83
2022/03/10 07:39:27;;;;;;;20.02;13.35;;;;;;;;;;6277965;22;20014;-82
2022/03/10 07:41:53;;;;;;;20.98;13.05;;;;;;;;;;6278715;22;20141;-83
2022/03/10 07:44:20;;;;;;;20.08;12.88;;;;;;;;;;6278577;22;20010;-80
2022/03/10 07:46:46;;;;;;;26.52;14.45;;;;;;;;;;6251726;22;20025;-82
2022/03/10 07:49:12;;;;;;;22.05;13.88;;;;;;;;;;6252676;22;20007;-82
2022/03/10 07:51:44;;;;;;;21.13;14.05;;;;;;;;;;6278080;22;20003;-83
2022/03/10 07:54:10;;;;;;;19.90;13.23;;;;;;;;;;6276494;22;20078;-82
2022/03/10 07:56:36;;;;;;;19.98;13.70;;;;;;;;;;6277752;22;20003;-83
2022/03/10 07:59:03;;;;;;;23.95;14.55;;;;;;;;;;6276439;22;20015;-83
2022/03/10 08:01:30;;;;;;;24.05;14.00;;;;;;;;;;6277493;22;20079;-82
2022/03/10 08:03:57;;;;;;;21.98;15.13;;;;;;;;;;6250468;22;20007;-82
2022/03/10 08:06:24;;;;;;;24.63;15.07;;;;;;;;;;6277797;22;20393;-81
2022/03/10 08:08:50;;;;;;;23.20;15.30;;;;;;;;;;6276656;22;20006;-82
2022/03/10 08:11:16;;;;;;;27.17;16.50;;;;;;;;;;6277332;22;19999;-82
2022/03/10 08:13:42;;;;;;;25.05;16.58;;;;;;;;;;6277772;22;19998;-81
2022/03/10 08:16:08;;;;;;;26.25;16.15;;;;;;;;;;6277568;22;20000;-81
2022/03/10 08:18:34;;;;;;;27.83;15.85;;;;;;;;;;6249855;22;20007;-82
2022/03/10 08:21:00;;;;;;;26.02;16.25;;;;;;;;;;6249085;22;20003;-81
2022/03/10 08:23:27;;;;;;;34.67;22.85;;;;;;;;;;6276444;22;20162;-81
2022/03/10 08:25:54;;;;;;;35.80;21.98;;;;;;;;;;6250087;22;20003;-82
2022/03/10 08:28:20;;;;;;;29.50;18.35;;;;;;;;;;6276473;22;20006;-82
2022/03/10 08:30:46;;;;;;;30.63;21.35;;;;;;;;;;6249636;22;20023;-84
2022/03/10 08:33:12;;;;;;;24.98;17.13;;;;;;;;;;6280519;22;20492;-82
2022/03/10 08:35:38;;;;;;;27.60;17.73;;;;;;;;;;6252862;22;20031;-83
2022/03/10 08:38:04;;;;;;;23.35;15.98;;;;;;;;;;6252670;22;20011;-82
2022/03/10 08:40:30;;;;;;;26.67;17.00;;;;;;;;;;6280171;22;19999;-83
2022/03/10 08:42:56;;;;;;;25.15;16.63;;;;;;;;;;6279569;22;20030;-82
2022/03/10 08:45:25;;;;;;;27.08;17.70;;;;;;;;;;6253045;22;20066;-82
2022/03/10 08:47:53;;;;;;;29.02;19.02;;;;;;;;;;6251988;22;20053;-84
2022/03/10 08:50:19;;;;;;;25.17;17.60;;;;;;;;;;6280246;22;20000;-83
2022/03/10 08:52:45;;;;;;;33.78;17.88;;;;;;;;;;6252842;22;20557;-83
2022/03/10 08:55:12;;;;;;;24.33;14.52;;;;;;;;;;6279597;22;19996;-83
2022/03/10 08:57:39;;;;;;;19.83;11.50;;;;;;;;;;6279772;22;20031;-83
2022/03/10 09:00:06;;;;;;;23.38;12.02;;;;;;;;;;6252357;22;20511;-82
2022/03/10 09:02:32;;;;;;;19.23;11.15;;;;;;;;;;6279146;22;20084;-83
2022/03/10 09:04:58;;;;;;;16.40;10.65;;;;;;;;;;6279307;22;20526;-82
2022/03/10 09:07:24;;;;;;;18.88;11.15;;;;;;;;;;6253501;22;20462;-83
2022/03/10 09:09:50;;;;;;;18.33;11.23;;;;;;;;;;6279667;22;19995;-83
2022/03/10 09:12:16;;;;;;;17.90;10.93;;;;;;;;;;6280047;22;20067;-84
2022/03/10 09:14:42;;;;;;;19.40;11.23;;;;;;;;;;6279691;22;20000;-84
2022/03/10 09:17:08;;;;;;;16.90;10.43;;;;;;;;;;6280302;22;20122;-83
2022/03/10 09:19:34;;;;;;;18.30;13.13;;;;;;;;;;6280510;22;20343;-84
2022/03/10 09:22:01;;;;;;;17.83;10.63;;;;;;;;;;6280718;22;20035;-84
2022/03/10 09:24:27;;;;;;;19.00;11.30;;;;;;;;;;6253233;22;20004;-83
2022/03/10 09:26:53;;;;;;;17.20;11.35;;;;;;;;;;6253248;22;20007;-84
2022/03/10 09:29:19;;;;;;;21.95;12.38;;;;;;;;;;6252748;22;20000;-83
2022/03/10 09:31:45;;;;;;;17.20;10.40;;;;;;;;;;6279250;22;20002;-84
2022/03/10 09:34:12;;;;;;;19.98;12.25;;;;;;;;;;6252846;22;20000;-83
2022/03/10 09:36:37;;;;;;;17.23;10.75;;;;;;;;;;6252279;22;20000;-83
2022/03/10 09:39:04;;;;;;;17.95;10.73;;;;;;;;;;6252119;22;20083;-82
2022/03/10 09:41:31;;;;;;;15.93;9.68;;;;;;;;;;6251806;22;20003;-83
2022/03/10 09:43:57;;;;;;;15.63;8.98;;;;;;;;;;6252724;22;20031;-82
2022/03/10 09:46:23;;;;;;;16.38;8.90;;;;;;;;;;6279917;22;20007;-83
2022/03/10 09:48:50;;;;;;;15.55;9.50;;;;;;;;;;6252065;22;20030;-84
2022/03/10 09:51:19;;;;;;;16.77;9.30;;;;;;;;;;6279272;22;19999;-83
2022/03/10 09:53:45;;;;;;;14.60;9.13;;;;;;;;;;6252954;22;20053;-84
2022/03/10 09:56:11;;;;;;;16.50;9.70;;;;;;;;;;6256161;22;20430;-84
2022/03/10 09:58:37;;;;;;;17.50;10.60;;;;;;;;;;6285140;22;20010;-84
2022/03/10 10:01:06;;;;;;;15.18;9.32;;;;;;;;;;6282110;22;20343;-84
2022/03/10 10:03:33;;;;;;;15.13;9.57;;;;;;;;;;6254528;22;20443;-82
2022/03/10 10:06:00;;;;;;;17.17;10.23;;;;;;;;;;6281760;22;20078;-83
2022/03/10 10:08:26;;;;;;;15.57;9.73;;;;;;;;;;6280963;22;20007;-83
2022/03/10 10:10:53;;;;;;;16.35;10.48;;;;;;;;;;6281109;22;20069;-83
2022/03/10 10:13:28;;;;;;;16.05;10.50;;;;;;;;;;6280658;22;20330;-83
2022/03/10 10:15:56;;;;;;;16.67;10.13;;;;;;;;;;6254585;22;20075;-83
2022/03/10 10:18:22;;;;;;;15.80;9.73;;;;;;;;;;6280445;22;19996;-82
2022/03/10 10:20:49;;;;;;;15.23;9.90;;;;;;;;;;6253129;22;20238;-82
2022/03/10 10:23:25;;;;;;;16.27;10.02;;;;;;;;;;6253615;22;20455;-83
2022/03/10 10:25:56;;;;;;;15.15;9.63;;;;;;;;;;6253961;22;20054;-83
2022/03/10 10:28:27;;;;;;;16.13;10.25;;;;;;;;;;6280922;22;20015;-84
2022/03/10 10:31:13;;;;;;;15.65;10.68;;;;;;;;;;6280560;22;20046;-83
2022/03/10 10:33:40;;;;;;;16.25;10.18;;;;;;;;;;6253736;22;19995;-84
2022/03/10 10:36:12;;;;;;;15.45;9.77;;;;;;;;;;6280454;22;20374;-83
2022/03/10 10:38:39;;;;;;;17.60;10.32;;;;;;;;;;6280513;22;20053;-82
2022/03/10 10:41:18;;;;;;;15.80;10.02;;;;;;;;;;6279882;22;20004;-83
2022/03/10 10:43:49;;;;;;;15.10;9.23;;;;;;;;;;6280664;22;20046;-83
2022/03/10 10:46:22;;;;;;;15.10;9.30;;;;;;;;;;6254444;22;20003;-83
2022/03/10 10:48:48;;;;;;;19.45;12.32;;;;;;;;;;6252846;22;20003;-83
2022/03/10 10:51:15;;;;;;;22.23;13.38;;;;;;;;;;6280300;22;19999;-83
2022/03/10 10:53:41;;;;;;;22.00;12.15;;;;;;;;;;6280285;22;20049;-83
2022/03/10 10:56:07;;;;;;;15.25;9.57;;;;;;;;;;6280384;22;20026;-84
2022/03/10 10:58:33;;;;;;;13.73;8.43;;;;;;;;;;6252685;22;20497;-82
2022/03/10 11:00:59;;;;;;;13.43;8.38;;;;;;;;;;6280806;22;20007;-84
2022/03/10 11:03:26;;;;;;;14.63;8.13;;;;;;;;;;6252738;22;20000;-82
2022/03/10 11:05:53;;;;;;;14.07;8.73;;;;;;;;;;6252817;22;20004;-83
2022/03/10 11:08:20;;;;;;;13.07;8.23;;;;;;;;;;6279916;22;20382;-82
2022/03/10 11:10:46;;;;;;;13.57;8.80;;;;;;;;;;6253896;22;20003;-83
2022/03/10 11:13:12;;;;;;;14.90;8.50;;;;;;;;;;6253527;22;20003;-83
2022/03/10 11:15:39;;;;;;;13.18;8.07;;;;;;;;;;6279996;22;19999;-83
2022/03/10 11:18:05;;;;;;;13.50;8.23;;;;;;;;;;6252051;22;20003;-84
2022/03/10 11:20:34;;;;;;;12.00;7.10;;;;;;;;;;6279488;22;20006;-83
2022/03/10 11:23:23;;;;;;;11.20;6.95;;;;;;;;;;6251726;22;20512;-83
2022/03/10 11:25:56;;;;;;;14.65;9.10;;;;;;;;;;6209238;22;20004;-84
2022/03/10 11:28:22;;;;;;;;;;;;;;;;;;6279973;22;19999;-83
2022/03/10 11:30:50;;;;;;;13.05;7.38;;;;;;;;;;6252144;22;19899;-82
2022/03/10 11:33:16;;;;;;;14.10;8.00;;;;;;;;;;6252110;22;20034;-83
2022/03/10 11:35:43;;;;;;;11.32;7.30;;;;;;;;;;6253072;22;20062;-83
2022/03/10 11:38:11;;;;;;;11.27;7.10;;;;;;;;;;6278979;22;19999;-83
2022/03/10 11:40:41;;;;;;;13.27;8.43;;;;;;;;;;6279941;22;20444;-83
2022/03/10 11:43:07;;;;;;;13.63;7.90;;;;;;;;;;6252223;22;20000;-82
2022/03/10 11:45:33;;;;;;;13.18;8.93;;;;;;;;;;6279258;22;19999;-83
2022/03/10 11:48:18;;;;;;;15.43;8.63;;;;;;;;;;6251928;22;20035;-82
2022/03/10 11:50:44;;;;;;;14.00;8.90;;;;;;;;;;6251356;22;20014;-83
2022/03/10 11:53:13;;;;;;;14.18;9.15;;;;;;;;;;6278133;22;19995;-82
2022/03/10 11:55:40;;;;;;;14.73;8.23;;;;;;;;;;6278862;22;19995;-83
2022/03/10 11:58:06;;;;;;;12.80;8.30;;;;;;;;;;6251411;22;20061;-83
2022/03/10 12:00:53;;;;;;;10.95;7.38;;;;;;;;;;6252001;22;20016;-82
2022/03/10 12:03:25;;;;;;;12.75;7.40;;;;;;;;;;6280792;22;20465;-83
2022/03/10 12:05:55;;;;;;;13.90;8.18;;;;;;;;;;6252652;22;20054;-82
2022/03/10 12:08:22;;;;;;;12.40;6.72;;;;;;;;;;6251636;22;20029;-83
2022/03/10 12:10:48;;;;;;;10.23;6.45;;;;;;;;;;6278484;22;20018;-83
2022/03/10 12:13:21;;;;;;;13.05;7.47;;;;;;;;;;6250289;22;20026;-83
2022/03/10 12:15:47;;;;;;;11.02;7.22;;;;;;;;;;6279300;22;20004;-83
2022/03/10 12:18:14;;;;;;;12.77;7.28;;;;;;;;;;6278702;22;19996;-82
2022/03/10 12:20:41;;;;;;;8.48;5.63;;;;;;;;;;6278921;22;20004;-82
2022/03/10 12:23:09;;;;;;;10.75;6.38;;;;;;;;;;6251432;22;20011;-82
2022/03/10 12:25:44;;;;;;;11.75;7.00;;;;;;;;;;6278436;22;20003;-84
2022/03/10 12:28:11;;;;;;;11.75;7.25;;;;;;;;;;6278380;22;20027;-83
2022/03/10 12:30:42;;;;;;;11.05;6.78;;;;;;;;;;6277264;22;20003;-81
2022/03/10 12:33:08;;;;;;;11.00;6.80;;;;;;;;;;6279364;22;20023;-82
2022/03/10 12:35:36;;;;;;;10.07;6.47;;;;;;;;;;6277890;22;20002;-81
2022/03/10 12:38:02;;;;;;;13.00;7.05;;;;;;;;;;6279100;22;20007;-82
2022/03/10 12:40:30;;;;;;;11.02;6.43;;;;;;;;;;6278007;22;20109;-82
2022/03/10 12:43:03;;;;;;;10.25;6.40;;;;;;;;;;6279738;22;20007;-83
2022/03/10 12:45:29;;;;;;;12.43;6.90;;;;;;;;;;6251718;22;20447;-83
2022/03/10 12:48:01;;;;;;;10.73;7.00;;;;;;;;;;6251208;22;20432;-83
2022/03/10 12:50:27;;;;;;;11.40;7.32;;;;;;;;;;6251682;22;20012;-83
2022/03/10 12:52:55;;;;;;;11.27;6.43;;;;;;;;;;6278360;22;19995;-83
2022/03/10 12:55:26;;;;;;;11.55;6.88;;;;;;;;;;6277757;22;20022;-84
2022/03/10 12:57:57;;;;;;;11.82;6.85;;;;;;;;;;6251110;22;20000;-83
2022/03/10 13:00:23;;;;;;;13.02;6.53;;;;;;;;;;6278549;22;20016;-82
2022/03/10 13:02:49;;;;;;;9.32;5.70;;;;;;;;;;6251511;22;20004;-83
2022/03/10 13:05:22;;;;;;;11.82;6.70;;;;;;;;;;6250289;22;20077;-83
2022/03/10 13:07:48;;;;;;;10.55;6.53;;;;;;;;;;6278120;22;19999;-84
2022/03/10 13:10:20;;;;;;;9.13;6.40;;;;;;;;;;6278081;22;20004;-82
2022/03/10 13:12:48;;;;;;;9.68;6.10;;;;;;;;;;6251338;22;20057;-84
2022/03/10 13:15:21;;;;;;;11.30;5.80;;;;;;;;;;6280672;22;19998;-82
2022/03/10 13:17:47;;;;;;;10.60;6.28;;;;;;;;;;6251389;22;20004;-82
2022/03/10 13:20:15;;;;;;;10.55;6.03;;;;;;;;;;6251681;22;20003;-81
2022/03/10 13:22:48;;;;;;;9.95;6.65;;;;;;;;;;6278290;22;19999;-82
2022/03/10 13:25:15;;;;;;;10.75;6.40;;;;;;;;;;6278394;22;20012;-83
2022/03/10 13:27:43;;;;;;;10.23;6.43;;;;;;;;;;6251508;22;20079;-83
2022/03/10 13:30:15;;;;;;;11.07;6.25;;;;;;;;;;6277575;22;20034;-82
2022/03/10 13:32:42;;;;;;;9.82;6.50;;;;;;;;;;6279406;22;20495;-82
2022/03/10 13:35:09;;;;;;;12.10;7.43;;;;;;;;;;6280339;22;20090;-82
2022/03/10 13:37:35;;;;;;;11.05;6.78;;;;;;;;;;6282412;22;20000;-82
2022/03/10 13:40:02;;;;;;;10.73;7.20;;;;;;;;;;6283503;22;20054;-81
2022/03/10 13:42:28;;;;;;;11.10;7.30;;;;;;;;;;6281045;22;20000;-82
2022/03/10 13:45:20;;;;;;;12.85;8.07;;;;;;;;;;6253679;22;20003;-82
2022/03/10 13:47:48;;;;;;;12.33;7.73;;;;;;;;;;6273225;22;20031;-83
2022/03/10 13:50:17;;;;;;;11.27;7.15;;;;;;;;;;6280744;22;20020;-83
2022/03/10 13:52:43;;;;;;;13.35;7.65;;;;;;;;;;6282998;22;20506;-81
2022/03/10 13:55:11;;;;;;;13.00;7.50;;;;;;;;;;6281402;22;20000;-82
2022/03/10 13:57:37;;;;;;;11.57;7.25;;;;;;;;;;6281108;22;20010;-83
2022/03/10 14:00:05;;;;;;;11.65;7.10;;;;;;;;;;6280842;22;20067;-83
2022/03/10 14:02:31;;;;;;;13.25;7.55;;;;;;;;;;6268638;22;20030;-83
2022/03/10 14:04:57;;;;;;;10.93;7.07;;;;;;;;;;6270295;22;20023;-84
2022/03/10 14:07:23;;;;;;;11.43;7.30;;;;;;;;;;6268924;22;20003;-83
2022/03/10 14:09:51;;;;;;;11.45;7.85;;;;;;;;;;6273757;22;20024;-83
2022/03/10 14:12:22;;;;;;;11.23;7.07;;;;;;;;;;6293409;22;20004;-84
2022/03/10 14:14:49;;;;;;;16.63;7.85;;;;;;;;;;6254504;22;20004;-84
2022/03/10 14:17:16;;;;;;;11.02;6.53;;;;;;;;;;6279621;22;20000;-84
2022/03/10 14:19:42;;;;;;;11.43;6.85;;;;;;;;;;6251008;22;20450;-85
2022/03/10 14:22:21;;;;;;;13.23;7.40;;;;;;;;;;6252640;22;20295;-83
2022/03/10 14:24:57;;;;;;;11.52;8.05;;;;;;;;;;6251452;22;20394;-84
2022/03/10 14:27:24;;;;;;;11.57;7.05;;;;;;;;;;6253040;22;20004;-84
2022/03/10 14:30:00;;;;;;;11.55;7.53;;;;;;;;;;6279509;22;20004;-83